Time;durP1;ratioP1;P1;durP2;ratioP2;P2;SDS_P1;SDS_P2;PMS_P1;PMS_P2;Temp;Humidity;BMP_temperature;BMP_pressure;BME280_temperature;BME280_humidity;BME280_pressure;Samples;Min_cycle;Max_cycle;Signal;HPM_P1;HPM_P2
2023/07/04 00:03:01;;;;;;;2.17;0.95;;;21.40;93.90;;;;;;10075793;28;20037;-67
2023/07/04 00:07:52;;;;;;;1.20;0.80;;;21.40;94.30;;;;;;10089763;28;20055;-67
2023/07/04 00:12:43;;;;;;;1.58;0.98;;;21.40;94.60;;;;;;10075470;28;20112;-70
2023/07/04 00:17:33;;;;;;;2.60;1.25;;;21.50;94.80;;;;;;10069734;28;20446;-70
2023/07/04 00:22:24;;;;;;;0.93;0.80;;;21.30;95.10;;;;;;10066828;28;20033;-71
2023/07/04 00:27:15;;;;;;;1.80;1.05;;;21.40;95.50;;;;;;10060122;28;20029;-71
2023/07/04 00:32:07;;;;;;;1.83;1.20;;;21.30;95.70;;;;;;10076454;28;20049;-73
2023/07/04 00:37:02;;;;;;;1.70;1.00;;;21.20;96.00;;;;;;10067916;28;20489;-67
2023/07/04 00:41:52;;;;;;;1.55;1.45;;;21.20;96.20;;;;;;10080255;28;20013;-66
2023/07/04 00:47:15;;;;;;;1.48;0.80;;;21.00;96.60;;;;;;10076794;28;20068;-68
2023/07/04 00:52:25;;;;;;;1.77;1.30;;;20.90;97.00;;;;;;10059117;28;20033;-68
2023/07/04 00:57:17;;;;;;;1.73;0.90;;;20.90;97.20;;;;;;10049683;28;20049;-64
2023/07/04 01:02:07;;;;;;;1.42;1.13;;;21.00;97.30;;;;;;10050780;28;20025;-71
2023/07/04 01:07:24;;;;;;;1.85;1.08;;;20.90;97.60;;;;;;10073517;28;20029;-71
2023/07/04 01:12:18;;;;;;;1.70;1.10;;;20.90;97.90;;;;;;10062700;28;20026;-71
2023/07/04 01:17:08;;;;;;;1.92;0.95;;;20.80;98.00;;;;;;10069864;28;20140;-69
2023/07/04 01:22:16;;;;;;;2.05;1.10;;;20.80;98.20;;;;;;10062890;28;20100;-70
2023/07/04 01:27:07;;;;;;;3.72;0.95;;;20.90;98.40;;;;;;10070516;28;20033;-68
2023/07/04 01:32:01;;;;;;;1.33;0.90;;;20.80;98.60;;;;;;10062277;28;20044;-65
2023/07/04 01:36:52;;;;;;;2.88;1.05;;;20.70;99.00;;;;;;10080805;28;20045;-71
2023/07/04 01:41:47;;;;;;;2.13;1.30;;;20.70;99.20;;;;;;10082645;28;20136;-70
2023/07/04 01:46:38;;;;;;;1.90;1.40;;;20.60;99.50;;;;;;10070549;28;20423;-70
2023/07/04 01:51:35;;;;;;;2.10;1.33;;;20.50;99.80;;;;;;10071102;28;20541;-70
2023/07/04 01:56:27;;;;;;;3.75;1.35;;;20.50;99.90;;;;;;10056984;28;20045;-64
2023/07/04 02:01:18;;;;;;;2.70;1.77;;;20.50;99.90;;;;;;10068143;28;20120;-62
2023/07/04 02:06:09;;;;;;;5.93;1.10;;;20.40;99.90;;;;;;10079204;28;20144;-62
2023/07/04 02:11:00;;;;;;;1.85;1.27;;;20.30;99.90;;;;;;10068174;28;20029;-69
2023/07/04 02:15:50;;;;;;;1.35;1.25;;;20.30;99.90;;;;;;10061134;28;20343;-61
2023/07/04 02:20:41;;;;;;;3.15;1.23;;;20.20;99.90;;;;;;10064170;28;20029;-66
2023/07/04 02:25:32;;;;;;;2.00;1.00;;;20.20;99.90;;;;;;10060217;28;20365;-65
2023/07/04 02:30:23;;;;;;;1.63;1.23;;;20.20;99.90;;;;;;10053075;28;20053;-65
2023/07/04 02:35:14;;;;;;;1.60;1.20;;;20.20;99.90;;;;;;10085909;28;20075;-67
2023/07/04 02:40:05;;;;;;;1.80;1.30;;;20.30;99.90;;;;;;10079212;28;20036;-69
2023/07/04 02:44:56;;;;;;;2.75;1.40;;;20.30;99.90;;;;;;10079481;28;20030;-69
2023/07/04 02:49:46;;;;;;;2.22;1.27;;;20.20;99.90;;;;;;10063748;28;20495;-69
2023/07/04 02:54:37;;;;;;;3.83;1.30;;;20.20;99.90;;;;;;10060113;28;20040;-67
2023/07/04 02:59:27;;;;;;;4.03;1.70;;;20.20;99.90;;;;;;10057997;28;20037;-65
2023/07/04 03:04:19;;;;;;;3.97;1.88;;;20.20;99.90;;;;;;10039665;28;20026;-64
2023/07/04 03:09:10;;;;;;;3.17;1.42;;;20.10;99.90;;;;;;10063344;28;20037;-65
2023/07/04 03:14:00;;;;;;;4.75;1.75;;;20.00;99.90;;;;;;10064963;28;20033;-68
2023/07/04 03:18:51;;;;;;;4.43;2.00;;;19.90;99.90;;;;;;10055408;28;20388;-63
2023/07/04 03:23:42;;;;;;;2.42;1.27;;;19.80;99.90;;;;;;10057888;28;20176;-65
2023/07/04 03:28:33;;;;;;;3.70;1.42;;;19.80;99.90;;;;;;10063130;28;20547;-68
2023/07/04 03:33:23;;;;;;;2.33;1.33;;;19.90;99.90;;;;;;10031872;28;20044;-66
2023/07/04 03:38:14;;;;;;;4.10;2.08;;;19.70;99.90;;;;;;10035707;28;20042;-65
2023/07/04 03:43:05;;;;;;;2.33;1.20;;;19.70;99.90;;;;;;10025434;28;20022;-65
2023/07/04 03:47:55;;;;;;;2.78;1.77;;;19.60;99.90;;;;;;10024466;28;20088;-69
2023/07/04 03:52:46;;;;;;;4.47;1.50;;;19.50;99.90;;;;;;10019916;28;20022;-68
2023/07/04 03:57:37;;;;;;;3.53;1.63;;;19.50;99.90;;;;;;9998545;28;20161;-69
2023/07/04 04:02:27;;;;;;;3.30;1.73;;;19.50;99.90;;;;;;10018064;28;20029;-65
2023/07/04 04:07:18;;;;;;;5.18;2.08;;;19.60;99.90;;;;;;10048525;28;20444;-69
2023/07/04 04:12:09;;;;;;;3.58;2.00;;;19.60;99.90;;;;;;10042706;28;20125;-69
2023/07/04 04:16:59;;;;;;;5.40;1.60;;;19.60;99.90;;;;;;10037366;28;20069;-72
2023/07/04 04:21:51;;;;;;;2.83;1.92;;;19.60;99.90;;;;;;10029880;28;20026;-69
2023/07/04 04:26:43;;;;;;;3.15;1.70;;;19.60;99.90;;;;;;10025816;28;20033;-71
2023/07/04 04:31:37;;;;;;;2.75;1.58;;;19.70;99.90;;;;;;10054932;28;20507;-70
2023/07/04 04:36:28;;;;;;;4.00;1.52;;;19.70;99.90;;;;;;10085065;28;20446;-70
2023/07/04 04:41:18;;;;;;;4.18;2.13;;;19.70;99.90;;;;;;10081859;28;20030;-68
2023/07/04 04:46:09;;;;;;;5.43;2.00;;;19.70;99.90;;;;;;10078816;28;20037;-70
2023/07/04 04:51:07;;;;;;;4.38;2.53;;;19.70;99.90;;;;;;10075509;28;20083;-71
2023/07/04 04:55:58;;;;;;;3.50;2.10;;;19.80;99.90;;;;;;10055744;28;20049;-74
2023/07/04 05:00:48;;;;;;;2.92;1.75;;;19.80;99.90;;;;;;10058834;28;20396;-70
2023/07/04 05:05:39;;;;;;;2.90;1.98;;;19.90;99.90;;;;;;10075049;28;20044;-73
2023/07/04 05:10:30;;;;;;;4.40;2.08;;;20.00;99.90;;;;;;10067127;28;20277;-71
2023/07/04 05:15:21;;;;;;;2.63;1.60;;;20.00;99.90;;;;;;10079628;28;20030;-69
2023/07/04 05:20:16;;;;;;;4.97;2.20;;;20.00;99.90;;;;;;10075209;28;20041;-67
2023/07/04 05:25:07;;;;;;;2.33;1.63;;;19.90;99.90;;;;;;10065928;28;20068;-71
2023/07/04 05:29:58;;;;;;;4.32;1.80;;;20.00;99.90;;;;;;10073125;28;20064;-72
2023/07/04 05:34:49;;;;;;;4.45;1.88;;;20.10;99.90;;;;;;10084830;28;20033;-69
2023/07/04 05:39:39;;;;;;;5.70;2.10;;;20.10;99.90;;;;;;10083947;28;20034;-68
2023/07/04 05:44:30;;;;;;;5.45;2.33;;;20.10;99.90;;;;;;10082933;28;20099;-63
2023/07/04 05:49:20;;;;;;;3.20;1.98;;;20.30;99.90;;;;;;10074356;28;20037;-69
2023/07/04 05:54:11;;;;;;;3.35;1.85;;;20.50;99.90;;;;;;10064337;28;20403;-72
2023/07/04 05:59:02;;;;;;;4.28;1.77;;;20.50;99.90;;;;;;10052169;28;20071;-72
2023/07/04 06:03:54;;;;;;;2.75;2.00;;;20.70;99.90;;;;;;10066221;28;20021;-71
2023/07/04 06:08:45;;;;;;;4.20;1.63;;;20.80;99.90;;;;;;10054798;28;20550;-73
2023/07/04 06:13:35;;;;;;;3.60;1.73;;;20.80;99.90;;;;;;10050308;28;20038;-72
2023/07/04 06:18:26;;;;;;;4.75;1.92;;;20.80;99.90;;;;;;10065220;28;20346;-73
2023/07/04 06:23:21;;;;;;;3.88;2.67;;;21.00;99.90;;;;;;10058279;28;20504;-70
2023/07/04 06:28:12;;;;;;;3.70;1.70;;;21.00;99.90;;;;;;10057865;28;20028;-72
2023/07/04 06:33:03;;;;;;;4.40;1.95;;;21.10;99.90;;;;;;10068448;28;20510;-64
2023/07/04 06:37:53;;;;;;;5.40;1.73;;;21.10;99.90;;;;;;10070281;28;20049;-63
2023/07/04 06:42:44;;;;;;;4.28;1.75;;;21.30;99.90;;;;;;10064540;28;20384;-65
2023/07/04 06:47:35;;;;;;;4.55;1.90;;;21.50;99.90;;;;;;10066809;28;20041;-68
2023/07/04 06:52:25;;;;;;;3.70;1.63;;;21.60;99.90;;;;;;10064625;28;20022;-68
2023/07/04 06:57:16;;;;;;;4.10;1.77;;;21.90;99.90;;;;;;10061377;28;20043;-68
2023/07/04 07:02:07;;;;;;;3.80;1.85;;;22.10;99.90;;;;;;10055525;28;20116;-65
2023/07/04 07:06:57;;;;;;;6.43;1.65;;;22.30;99.90;;;;;;10075049;28;20148;-65
2023/07/04 07:11:48;;;;;;;3.30;1.85;;;22.30;99.90;;;;;;10074121;28;20065;-65
2023/07/04 07:16:39;;;;;;;4.95;1.92;;;22.20;99.90;;;;;;10073719;28;20039;-64
2023/07/04 07:21:29;;;;;;;4.28;1.88;;;22.10;99.90;;;;;;10060339;28;20021;-67
2023/07/04 07:26:22;;;;;;;3.45;1.63;;;22.00;99.90;;;;;;10053135;28;20038;-67
2023/07/04 07:31:18;;;;;;;4.00;1.67;;;22.10;99.90;;;;;;10052851;28;20045;-68
2023/07/04 07:36:10;;;;;;;8.25;2.22;;;22.20;99.90;;;;;;10050301;28;20038;-67
2023/07/04 07:41:02;;;;;;;3.78;1.52;;;22.30;99.90;;;;;;10072530;28;20038;-67
2023/07/04 07:45:52;;;;;;;3.63;1.42;;;22.40;99.80;;;;;;10079770;28;20487;-67
2023/07/04 07:50:44;;;;;;;3.78;1.88;;;22.40;99.60;;;;;;10074188;28;20043;-64
2023/07/04 07:55:34;;;;;;;4.82;1.88;;;22.30;99.50;;;;;;10062954;28;20029;-68
2023/07/04 08:00:27;;;;;;;5.65;2.47;;;22.50;99.20;;;;;;10064630;28;20467;-69
2023/07/04 08:05:18;;;;;;;9.95;3.10;;;22.40;99.00;;;;;;10070890;28;20033;-66
2023/07/04 08:10:09;;;;;;;7.15;1.83;;;22.60;98.80;;;;;;10085393;28;20192;-66
2023/07/04 08:15:01;;;;;;;4.00;2.05;;;22.70;98.50;;;;;;10055882;28;20656;-69
2023/07/04 08:19:52;;;;;;;4.28;1.60;;;22.60;98.40;;;;;;10055510;28;20380;-67
2023/07/04 08:24:43;;;;;;;5.50;2.45;;;22.60;98.30;;;;;;10063284;28;20034;-68
2023/07/04 08:29:34;;;;;;;5.43;2.20;;;22.50;98.10;;;;;;10055905;28;20117;-67
2023/07/04 08:34:24;;;;;;;3.92;1.77;;;22.60;97.90;;;;;;10066243;28;20049;-70
2023/07/04 08:39:16;;;;;;;4.38;2.20;;;22.70;97.80;;;;;;10081992;28;20098;-69
2023/07/04 08:44:13;;;;;;;2.97;2.25;;;22.70;97.50;;;;;;10070978;28;20025;-62
2023/07/04 08:49:07;;;;;;;2.85;2.10;;;22.80;97.40;;;;;;10075528;28;20037;-64
2023/07/04 08:54:00;;;;;;;5.20;2.17;;;22.70;97.40;;;;;;10065659;28;20033;-67
2023/07/04 08:59:09;;;;;;;4.55;2.25;;;23.00;97.10;;;;;;10052813;28;20534;-68
2023/07/04 09:04:32;;;;;;;4.55;1.95;;;23.10;96.90;;;;;;10086729;28;20033;-69
2023/07/04 09:09:40;;;;;;;6.90;2.50;;;23.30;96.40;;;;;;10051805;28;20076;-72
2023/07/04 09:14:45;;;;;;;8.65;4.30;;;23.60;96.30;;;;;;10067241;28;20029;-69
2023/07/04 09:19:40;;;;;;;;;;;23.70;95.50;;;;;;10059579;28;20044;-69
2023/07/04 09:24:30;;;;;;;4.95;2.70;;;24.00;95.20;;;;;;10052471;28;19920;-69
2023/07/04 09:29:24;;;;;;;6.40;2.40;;;24.20;94.90;;;;;;10073261;28;20300;-69
2023/07/04 09:34:23;;;;;;;4.78;2.65;;;24.10;94.80;;;;;;10089114;28;20084;-76
2023/07/04 09:39:14;;;;;;;4.40;2.33;;;24.20;94.50;;;;;;10086294;28;20127;-76
2023/07/04 09:44:14;;;;;;;6.70;2.75;;;24.30;94.10;;;;;;10069475;28;20032;-70
2023/07/04 09:49:27;;;;;;;5.78;2.67;;;24.60;93.90;;;;;;10070415;28;20091;-63
2023/07/04 09:54:18;;;;;;;4.45;2.50;;;24.90;93.00;;;;;;10058666;28;20025;-64
2023/07/04 09:59:21;;;;;;;6.70;2.63;;;25.20;92.90;;;;;;10056004;28;20509;-66
2023/07/04 10:04:13;;;;;;;5.78;3.20;;;25.20;92.40;;;;;;10057315;28;20037;-63
2023/07/04 10:09:19;;;;;;;7.53;3.17;;;25.50;91.80;;;;;;10073474;28;20106;-65
2023/07/04 10:14:13;;;;;;;6.25;2.70;;;25.50;90.90;;;;;;10063574;28;20534;-62
2023/07/04 10:19:12;;;;;;;5.28;2.80;;;25.70;90.60;;;;;;10051315;28;20044;-62
2023/07/04 10:24:03;;;;;;;5.88;2.42;;;26.10;90.00;;;;;;10060422;28;20219;-63
2023/07/04 10:28:54;;;;;;;5.57;3.05;;;26.30;89.30;;;;;;10056837;28;20108;-64
2023/07/04 10:34:00;;;;;;;5.40;2.78;;;26.30;88.70;;;;;;10084323;28;20056;-64
2023/07/04 10:38:54;;;;;;;7.40;3.17;;;26.50;87.90;;;;;;10083596;28;20049;-64
2023/07/04 10:43:55;;;;;;;7.03;2.58;;;26.40;87.00;;;;;;10082682;28;20020;-62
2023/07/04 10:48:49;;;;;;;5.78;2.67;;;26.50;86.70;;;;;;10076440;28;20025;-65
2023/07/04 10:53:39;;;;;;;3.88;2.47;;;26.60;86.00;;;;;;10065505;28;20395;-63
2023/07/04 10:58:34;;;;;;;7.35;3.03;;;26.70;85.20;;;;;;10047261;28;20053;-62
2023/07/04 11:03:48;;;;;;;5.90;2.67;;;26.80;84.50;;;;;;10054589;28;20079;-65
2023/07/04 11:08:40;;;;;;;5.22;2.45;;;26.70;83.70;;;;;;10031216;28;20581;-68
2023/07/04 11:13:32;;;;;;;5.72;2.63;;;27.00;83.30;;;;;;10061497;28;20095;-65
2023/07/04 11:18:32;;;;;;;5.00;2.70;;;27.10;82.60;;;;;;10068295;28;20038;-64
2023/07/04 11:23:23;;;;;;;7.10;2.42;;;26.80;81.50;;;;;;10051291;28;20017;-64
2023/07/04 11:28:35;;;;;;;2.95;2.13;;;27.00;81.30;;;;;;10052867;28;20419;-65
2023/07/04 11:33:38;;;;;;;4.40;2.50;;;27.00;80.30;;;;;;10051079;28;20056;-66
2023/07/04 11:38:29;;;;;;;6.20;2.97;;;27.70;80.30;;;;;;10063781;28;20418;-65
2023/07/04 11:43:40;;;;;;;4.20;2.80;;;28.10;79.90;;;;;;10047565;28;20117;-64
2023/07/04 11:48:33;;;;;;;3.90;2.60;;;27.80;79.50;;;;;;10061177;28;20032;-65
2023/07/04 11:53:33;;;;;;;5.28;2.30;;;27.70;79.60;;;;;;10062422;28;20029;-65
2023/07/04 11:58:23;;;;;;;4.50;2.42;;;27.30;79.50;;;;;;10053931;28;20072;-65
2023/07/04 12:03:20;;;;;;;6.00;2.60;;;27.60;79.30;;;;;;10065971;28;20071;-66
2023/07/04 12:08:21;;;;;;;3.63;2.90;;;27.80;78.70;;;;;;10055743;28;20115;-65
2023/07/04 12:13:18;;;;;;;3.60;2.35;;;27.40;78.90;;;;;;10065843;28;20554;-65
2023/07/04 12:18:19;;;;;;;4.38;2.45;;;27.20;78.90;;;;;;10062909;28;20061;-66
2023/07/04 12:23:10;;;;;;;4.35;2.42;;;26.80;78.80;;;;;;10050632;28;20032;-62
2023/07/04 12:28:03;;;;;;;7.03;2.63;;;26.60;78.70;;;;;;10053311;28;20117;-64
2023/07/04 12:32:54;;;;;;;4.75;2.58;;;26.60;78.30;;;;;;10078894;28;20061;-61
2023/07/04 12:37:47;;;;;;;4.88;2.35;;;27.10;78.30;;;;;;10075235;28;20415;-60
2023/07/04 12:42:39;;;;;;;5.57;2.17;;;27.20;78.00;;;;;;10042418;28;20022;-62
2023/07/04 12:47:33;;;;;;;3.58;2.42;;;27.00;78.00;;;;;;10076737;28;20407;-63
2023/07/04 12:52:27;;;;;;;;;;;26.90;77.70;;;;;;10053261;28;20064;-61
2023/07/04 12:57:21;;;;;;;3.28;1.95;;;26.80;77.70;;;;;;10062417;28;19952;-64
2023/07/04 13:02:22;;;;;;;6.28;2.22;;;26.70;77.80;;;;;;10054720;28;20394;-64
2023/07/04 13:07:13;;;;;;;4.32;2.28;;;28.20;77.30;;;;;;10060236;28;20100;-66
2023/07/04 13:12:04;;;;;;;3.30;2.33;;;31.10;76.00;;;;;;10079791;28;20527;-65
2023/07/04 13:17:09;;;;;;;3.47;2.15;;;32.80;75.00;;;;;;10071275;28;20041;-65
2023/07/04 13:22:12;;;;;;;3.30;2.38;;;33.70;72.90;;;;;;10061276;28;20029;-65
2023/07/04 13:27:14;;;;;;;2.67;1.92;;;34.30;71.30;;;;;;10058905;28;20034;-65
2023/07/04 13:32:24;;;;;;;2.35;1.90;;;34.70;69.80;;;;;;10072281;28;20065;-66
2023/07/04 13:37:15;;;;;;;5.15;2.97;;;35.10;67.90;;;;;;10074755;28;20094;-68
2023/07/04 13:42:06;;;;;;;3.47;2.20;;;34.90;67.90;;;;;;10078876;28;20039;-64
2023/07/04 13:46:57;;;;;;;3.35;2.10;;;35.80;66.10;;;;;;10069878;28;20116;-70
2023/07/04 13:51:47;;;;;;;;;;;36.70;64.00;;;;;;10063765;28;20030;-70
2023/07/04 13:56:38;;;;;;;3.60;2.15;;;35.30;62.00;;;;;;10056049;28;19928;-61
2023/07/04 14:01:29;;;;;;;3.27;1.97;;;35.80;63.20;;;;;;10056431;28;20153;-65
2023/07/04 14:06:19;;;;;;;2.30;1.67;;;35.50;62.20;;;;;;10078444;28;20402;-63
2023/07/04 14:11:13;;;;;;;3.58;2.13;;;33.90;62.50;;;;;;10065450;28;20264;-63
2023/07/04 14:16:06;;;;;;;3.00;2.00;;;32.00;63.40;;;;;;10063314;28;20103;-65
2023/07/04 14:20:57;;;;;;;;;;;30.50;63.90;;;;;;10064162;28;20030;-63
2023/07/04 14:25:50;;;;;;;3.63;1.85;;;29.40;65.00;;;;;;10063012;28;19909;-65
2023/07/04 14:30:42;;;;;;;4.88;1.92;;;29.00;65.20;;;;;;10051642;28;20440;-64
2023/07/04 14:35:32;;;;;;;3.47;1.80;;;28.60;65.80;;;;;;10085507;28;20041;-62
2023/07/04 14:40:23;;;;;;;2.53;2.13;;;28.10;66.50;;;;;;10067919;28;20446;-61
2023/07/04 14:45:14;;;;;;;3.35;1.92;;;28.00;67.00;;;;;;10064665;28;20033;-61
2023/07/04 14:50:06;;;;;;;3.42;2.00;;;27.80;67.90;;;;;;10072902;28;20029;-64
2023/07/04 14:54:57;;;;;;;5.15;1.85;;;27.50;68.60;;;;;;10040344;28;20033;-63
2023/07/04 14:59:47;;;;;;;3.78;1.75;;;27.40;69.00;;;;;;10052274;28;20395;-63
2023/07/04 15:04:38;;;;;;;3.30;1.33;;;27.20;69.50;;;;;;10050578;28;20033;-64
2023/07/04 15:09:30;;;;;;;2.08;1.40;;;26.80;70.20;;;;;;10067698;28;20380;-63
2023/07/04 15:14:21;;;;;;;4.55;1.63;;;26.50;71.80;;;;;;10065525;28;20072;-63
2023/07/04 15:19:13;;;;;;;4.13;1.58;;;26.10;72.30;;;;;;10063758;28;20057;-63
2023/07/04 15:24:04;;;;;;;4.35;1.75;;;25.20;75.20;;;;;;10061398;28;20025;-62
2023/07/04 15:28:55;;;;;;;3.88;1.45;;;24.40;78.00;;;;;;10051659;28;20492;-62
2023/07/04 15:33:46;;;;;;;4.40;2.08;;;23.60;81.00;;;;;;10057987;28;20058;-63
2023/07/04 15:38:37;;;;;;;4.00;1.75;;;23.10;83.70;;;;;;10061271;28;20038;-63
2023/07/04 15:43:32;;;;;;;2.33;1.30;;;22.90;85.40;;;;;;10066590;28;20036;-66
2023/07/04 15:48:24;;;;;;;1.92;1.45;;;23.10;86.20;;;;;;10065715;28;20029;-64
2023/07/04 15:53:15;;;;;;;2.20;1.35;;;23.20;87.00;;;;;;10059997;28;20510;-63
2023/07/04 15:58:06;;;;;;;2.10;1.27;;;23.20;87.90;;;;;;10041228;28;20037;-64
2023/07/04 16:02:57;;;;;;;3.65;1.40;;;23.50;88.60;;;;;;10050425;28;20028;-64
2023/07/04 16:07:48;;;;;;;2.95;1.70;;;24.00;88.70;;;;;;10084101;28;20029;-65
2023/07/04 16:12:38;;;;;;;4.85;3.17;;;24.20;89.30;;;;;;10077333;28;20037;-67
2023/07/04 16:17:29;;;;;;;4.45;1.98;;;24.30;90.00;;;;;;10057147;28;20448;-68
2023/07/04 16:22:20;;;;;;;4.10;2.08;;;24.30;90.20;;;;;;10062649;28;20507;-64
2023/07/04 16:27:10;;;;;;;3.30;1.65;;;24.50;90.70;;;;;;10056778;28;20037;-66
2023/07/04 16:32:01;;;;;;;2.30;1.48;;;24.90;90.80;;;;;;10072793;28;20056;-61
2023/07/04 16:36:53;;;;;;;2.08;1.15;;;24.60;90.90;;;;;;10084117;28;20068;-64
2023/07/04 16:41:43;;;;;;;3.92;1.48;;;24.30;91.40;;;;;;10076955;28;20065;-63
2023/07/04 16:46:34;;;;;;;1.13;0.95;;;24.50;91.40;;;;;;10073332;28;20029;-64
2023/07/04 16:51:24;;;;;;;2.88;1.35;;;24.50;91.40;;;;;;10068419;28;20083;-64
2023/07/04 16:56:15;;;;;;;1.25;1.02;;;24.40;91.60;;;;;;10033371;28;20403;-65
2023/07/04 17:01:06;;;;;;;2.25;1.00;;;24.50;91.60;;;;;;10059086;28;20100;-65
2023/07/04 17:06:02;;;;;;;2.10;1.27;;;24.70;91.50;;;;;;10048188;28;20071;-64
2023/07/04 17:10:52;;;;;;;1.77;1.08;;;24.50;91.70;;;;;;10056298;28;20112;-64
2023/07/04 17:15:50;;;;;;;2.85;1.80;;;24.50;91.70;;;;;;10059691;28;20527;-67
2023/07/04 17:20:42;;;;;;;2.80;1.20;;;26.10;91.00;;;;;;10048146;28;20042;-62
2023/07/04 17:25:32;;;;;;;2.00;1.20;;;28.80;88.80;;;;;;10052600;28;20052;-66
2023/07/04 17:30:24;;;;;;;1.60;1.20;;;32.60;83.80;;;;;;10054578;28;20504;-64
2023/07/04 17:35:14;;;;;;;2.50;1.40;;;33.10;82.60;;;;;;10054648;28;20382;-63
2023/07/04 17:40:06;;;;;;;1.70;1.08;;;30.40;86.30;;;;;;10057258;28;20116;-64
2023/07/04 17:44:57;;;;;;;2.22;0.90;;;28.30;89.80;;;;;;10038424;28;20025;-66
2023/07/04 17:49:48;;;;;;;2.00;1.50;;;26.90;90.60;;;;;;10055969;28;20510;-66
2023/07/04 17:54:39;;;;;;;2.05;1.50;;;26.00;91.00;;;;;;10053164;28;20034;-64
2023/07/04 17:59:29;;;;;;;1.88;0.68;;;25.80;91.00;;;;;;10053346;28;20042;-64
2023/07/04 18:04:21;;;;;;;3.25;1.60;;;25.60;90.90;;;;;;10055635;28;20025;-65
2023/07/04 18:09:12;;;;;;;2.47;1.00;;;25.50;91.00;;;;;;10053358;28;20099;-65
2023/07/04 18:14:03;;;;;;;1.85;1.15;;;25.40;91.10;;;;;;10045110;28;20112;-68
2023/07/04 18:18:54;;;;;;;1.60;1.20;;;24.90;91.20;;;;;;10051463;28;20504;-64
2023/07/04 18:23:46;;;;;;;1.15;0.90;;;24.80;91.30;;;;;;10058008;28;20025;-67
2023/07/04 18:28:41;;;;;;;3.13;2.08;;;24.50;91.50;;;;;;10041051;28;20029;-69
2023/07/04 18:33:32;;;;;;;1.40;0.57;;;24.50;91.50;;;;;;10057293;28;20055;-65
2023/07/04 18:38:24;;;;;;;2.67;1.30;;;24.50;91.50;;;;;;10073131;28;20033;-66
2023/07/04 18:43:14;;;;;;;2.67;1.35;;;24.50;91.60;;;;;;10061858;28;20530;-67
2023/07/04 18:48:05;;;;;;;3.53;1.27;;;24.30;91.70;;;;;;10061667;28;20112;-66
2023/07/04 18:52:56;;;;;;;2.40;1.38;;;24.20;91.90;;;;;;10053623;28;20152;-61
2023/07/04 18:57:46;;;;;;;3.10;1.55;;;24.30;92.10;;;;;;10047990;28;20087;-66
2023/07/04 19:02:37;;;;;;;1.70;1.40;;;24.30;92.20;;;;;;10054368;28;20028;-68
2023/07/04 19:07:28;;;;;;;1.83;0.95;;;24.10;92.40;;;;;;10066330;28;20451;-69
2023/07/04 19:12:18;;;;;;;5.35;2.10;;;24.00;92.70;;;;;;10066801;28;20032;-68
2023/07/04 19:17:09;;;;;;;3.45;1.40;;;23.90;93.00;;;;;;10055527;28;20041;-70
2023/07/04 19:22:04;;;;;;;2.88;1.88;;;23.80;93.20;;;;;;10055606;28;20025;-69
2023/07/04 19:26:55;;;;;;;4.03;2.28;;;23.70;93.60;;;;;;10054959;28;20033;-69
2023/07/04 19:31:53;;;;;;;3.55;1.50;;;23.80;93.60;;;;;;10054757;28;20033;-67
2023/07/04 19:36:45;;;;;;;1.13;1.00;;;23.80;93.80;;;;;;10061862;28;20037;-71
2023/07/04 19:41:36;;;;;;;2.95;1.60;;;23.60;94.00;;;;;;10049907;28;20030;-69
2023/07/04 19:46:26;;;;;;;2.38;1.50;;;23.60;94.20;;;;;;10066383;28;20033;-68
2023/07/04 19:51:20;;;;;;;3.33;1.70;;;23.50;94.30;;;;;;10070777;28;20032;-66
2023/07/04 19:56:13;;;;;;;3.78;1.60;;;23.50;94.40;;;;;;10044081;28;20420;-64
2023/07/04 20:01:06;;;;;;;4.63;1.42;;;23.50;94.30;;;;;;10040068;28;20079;-67
2023/07/04 20:05:57;;;;;;;2.17;1.13;;;23.40;94.30;;;;;;10080550;28;20044;-72
2023/07/04 20:10:48;;;;;;;2.30;1.25;;;23.40;94.50;;;;;;10063226;28;20515;-68
2023/07/04 20:15:42;;;;;;;2.78;1.33;;;23.40;94.40;;;;;;10065498;28;20037;-68
2023/07/04 20:20:33;;;;;;;2.03;0.88;;;23.40;94.50;;;;;;10062141;28;20484;-69
2023/07/04 20:25:24;;;;;;;3.05;1.35;;;23.40;94.50;;;;;;10058321;28;20048;-72
2023/07/04 20:30:14;;;;;;;2.65;1.67;;;23.40;94.40;;;;;;10077673;28;20127;-67
2023/07/04 20:35:05;;;;;;;1.77;1.05;;;23.40;94.60;;;;;;10072556;28;20459;-67
2023/07/04 20:39:56;;;;;;;4.35;1.20;;;23.30;94.60;;;;;;10071363;28;20523;-62
2023/07/04 20:44:47;;;;;;;2.05;1.02;;;23.30;94.70;;;;;;10061351;28;20036;-66
2023/07/04 20:49:37;;;;;;;1.95;1.67;;;23.20;94.70;;;;;;10057771;28;20074;-65
2023/07/04 20:54:28;;;;;;;4.70;1.30;;;23.20;94.70;;;;;;10044144;28;20311;-66
2023/07/04 20:59:20;;;;;;;2.88;1.23;;;23.10;94.70;;;;;;10051388;28;20045;-65
2023/07/04 21:04:11;;;;;;;6.38;2.47;;;23.10;94.70;;;;;;10069754;28;20029;-65
2023/07/04 21:09:15;;;;;;;5.30;1.58;;;23.00;94.90;;;;;;10073598;28;20048;-65
2023/07/04 21:14:06;;;;;;;3.00;1.50;;;23.00;95.00;;;;;;10059393;28;20037;-65
2023/07/04 21:18:56;;;;;;;3.60;1.80;;;22.90;95.00;;;;;;10045265;28;20050;-67
2023/07/04 21:23:47;;;;;;;3.03;1.35;;;22.90;95.20;;;;;;10060787;28;20021;-61
2023/07/04 21:28:40;;;;;;;2.42;1.25;;;22.90;95.20;;;;;;10064635;28;20076;-63
2023/07/04 21:33:31;;;;;;;3.38;1.85;;;22.80;95.30;;;;;;10074520;28;20414;-65
2023/07/04 21:38:22;;;;;;;2.55;1.38;;;22.80;95.40;;;;;;10083214;28;20403;-63
2023/07/04 21:43:13;;;;;;;5.53;2.10;;;22.70;95.70;;;;;;10075856;28;20025;-62
2023/07/04 21:48:04;;;;;;;2.38;1.67;;;22.60;95.70;;;;;;10079614;28;20103;-63
2023/07/04 21:52:54;;;;;;;2.95;1.42;;;22.70;95.70;;;;;;10069700;28;20112;-62
2023/07/04 21:57:48;;;;;;;2.58;1.30;;;22.60;95.90;;;;;;10052903;28;20124;-63
2023/07/04 22:02:39;;;;;;;1.65;1.20;;;22.40;96.00;;;;;;10058129;28;20024;-65
2023/07/04 22:07:30;;;;;;;2.28;1.20;;;22.30;96.20;;;;;;10075167;28;20112;-66
2023/07/04 22:12:21;;;;;;;1.95;1.40;;;22.30;96.30;;;;;;10075351;28;20026;-67
2023/07/04 22:17:11;;;;;;;2.40;1.02;;;22.20;96.60;;;;;;10073360;28;20407;-68
2023/07/04 22:22:02;;;;;;;2.17;1.33;;;22.20;96.90;;;;;;10066571;28;20095;-68
2023/07/04 22:26:53;;;;;;;2.33;1.00;;;22.20;97.10;;;;;;10055492;28;20472;-66
2023/07/04 22:31:43;;;;;;;1.27;1.10;;;22.20;97.30;;;;;;10078881;28;20052;-65
2023/07/04 22:36:34;;;;;;;2.67;1.40;;;22.10;97.60;;;;;;10086045;28;20040;-68
2023/07/04 22:41:27;;;;;;;2.00;1.35;;;22.00;97.90;;;;;;10074426;28;20017;-67
2023/07/04 22:46:18;;;;;;;3.90;2.08;;;21.80;98.20;;;;;;10057837;28;20025;-66
2023/07/04 22:51:08;;;;;;;2.40;1.20;;;21.70;98.60;;;;;;10066543;28;20044;-67
2023/07/04 22:56:04;;;;;;;2.80;1.33;;;21.50;98.90;;;;;;10056457;28;20036;-67
2023/07/04 23:00:55;;;;;;;1.20;0.88;;;21.50;99.00;;;;;;10051897;28;20033;-66
2023/07/04 23:05:46;;;;;;;1.65;1.17;;;21.50;99.30;;;;;;10076458;28;20345;-67
2023/07/04 23:10:37;;;;;;;4.90;1.80;;;21.60;99.40;;;;;;10073805;28;20034;-66
2023/07/04 23:15:28;;;;;;;1.63;1.10;;;21.70;99.60;;;;;;10066141;28;20033;-65
2023/07/04 23:20:18;;;;;;;2.53;0.95;;;21.80;99.70;;;;;;10061427;28;20037;-68
2023/07/04 23:25:10;;;;;;;4.57;1.55;;;21.80;99.80;;;;;;10059399;28;20022;-65
2023/07/04 23:30:00;;;;;;;3.08;1.20;;;21.70;99.90;;;;;;10062143;28;20044;-66
2023/07/04 23:34:51;;;;;;;3.15;1.20;;;21.50;99.90;;;;;;10042894;28;20136;-67
2023/07/04 23:39:44;;;;;;;1.92;1.00;;;21.20;99.90;;;;;;10074337;28;20463;-66
2023/07/04 23:44:35;;;;;;;2.35;1.52;;;21.30;99.90;;;;;;10055114;28;20029;-67
2023/07/04 23:49:25;;;;;;;3.65;1.45;;;21.40;99.90;;;;;;10067403;28;20029;-69
2023/07/04 23:54:16;;;;;;;2.75;1.75;;;21.40;99.90;;;;;;10060702;28;20468;-68
2023/07/04 23:59:07;;;;;;;4.75;1.17;;;21.40;99.90;;;;;;10060776;28;20051;-66
